createdAt,value
2023-04-10T00:00:03.819Z,89.30
2023-04-10T00:02:31.806Z,89.30
2023-04-10T00:04:59.872Z,88.70
2023-04-10T00:07:27.492Z,88.80
2023-04-10T00:09:54.536Z,88.70
2023-04-10T00:12:21.351Z,88.90
2023-04-10T00:14:48.117Z,89.00
2023-04-10T00:17:14.946Z,88.60
2023-04-10T00:19:41.919Z,88.80
2023-04-10T00:22:08.737Z,88.60
2023-04-10T00:24:35.674Z,88.50
2023-04-10T00:27:02.707Z,88.80
2023-04-10T00:29:29.499Z,88.90
2023-04-10T00:31:56.331Z,88.80
2023-04-10T00:34:23.714Z,88.80
2023-04-10T00:36:51.059Z,88.70
2023-04-10T00:39:17.783Z,88.70
2023-04-10T00:41:44.535Z,88.70
2023-04-10T00:44:11.314Z,88.60
2023-04-10T00:46:39.752Z,89.00
2023-04-10T00:49:06.875Z,89.50
2023-04-10T00:51:33.844Z,89.80
2023-04-10T00:54:02.446Z,90.30
2023-04-10T00:56:33.482Z,90.20
2023-04-10T00:59:00.429Z,89.90
2023-04-10T01:01:27.184Z,89.90
2023-04-10T01:03:54.938Z,89.70
2023-04-10T01:06:36.768Z,89.60
2023-04-10T01:09:34.878Z,89.80
2023-04-10T01:12:09.636Z,89.90
2023-04-10T01:14:49.119Z,89.60
2023-04-10T01:17:59.008Z,89.40
2023-04-10T01:20:30.985Z,89.20
2023-04-10T01:23:06.794Z,88.80
2023-04-10T01:25:53.656Z,89.60
2023-04-10T01:28:23.286Z,89.90
2023-04-10T01:30:54.079Z,90.10
2023-04-10T01:33:26.327Z,90.10
2023-04-10T01:35:58.238Z,89.40
2023-04-10T01:38:28.098Z,89.10
2023-04-10T01:40:55.983Z,88.50
2023-04-10T01:43:26.089Z,88.50
2023-04-10T01:45:54.185Z,88.70
2023-04-10T01:48:21.706Z,88.70
2023-04-10T01:50:50.396Z,88.70
2023-04-10T01:53:18.482Z,88.70
2023-04-10T01:55:45.698Z,88.60
2023-04-10T01:58:13.103Z,88.50
2023-04-10T02:00:41.758Z,88.60
2023-04-10T02:03:09.858Z,89.30
2023-04-10T02:06:03.965Z,89.60
2023-04-10T02:08:31.048Z,89.40
2023-04-10T02:11:08.615Z,89.40
2023-04-10T02:13:37.132Z,89.60
2023-04-10T02:16:08.865Z,89.70
2023-04-10T02:18:38.434Z,89.50
2023-04-10T02:21:05.970Z,89.70
2023-04-10T02:23:32.920Z,89.80
2023-04-10T02:26:06.662Z,89.70
2023-04-10T02:28:33.466Z,89.70
2023-04-10T02:31:00.619Z,89.60
2023-04-10T02:33:27.421Z,89.70
2023-04-10T02:35:54.456Z,89.40
2023-04-10T02:38:21.355Z,89.00
2023-04-10T02:40:50.241Z,89.40
2023-04-10T02:43:17.423Z,89.60
2023-04-10T02:45:44.481Z,89.70
2023-04-10T02:48:11.230Z,90.00
2023-04-10T02:50:38.388Z,90.30
2023-04-10T02:53:05.357Z,90.40
2023-04-10T02:55:32.346Z,90.70
2023-04-10T02:57:59.472Z,90.60
2023-04-10T03:00:26.679Z,90.90
2023-04-10T03:02:53.860Z,90.50
2023-04-10T03:05:20.942Z,87.50
2023-04-10T03:07:47.809Z,88.40
2023-04-10T03:10:14.606Z,90.20
2023-04-10T03:12:41.344Z,91.10
2023-04-10T03:15:08.822Z,91.20
2023-04-10T03:17:35.787Z,91.20
2023-04-10T03:20:02.580Z,91.50
2023-04-10T03:22:32.193Z,91.20
2023-04-10T03:24:59.044Z,90.30
2023-04-10T03:27:26.051Z,90.30
2023-04-10T03:29:52.881Z,90.50
2023-04-10T03:32:19.599Z,90.30
2023-04-10T03:34:46.333Z,89.70
2023-04-10T03:37:13.069Z,89.70
2023-04-10T03:39:40.118Z,89.80
2023-04-10T03:42:06.882Z,89.30
2023-04-10T03:44:35.733Z,89.40
2023-04-10T03:47:02.509Z,89.90
2023-04-10T03:49:29.392Z,90.10
2023-04-10T03:51:56.381Z,90.10
2023-04-10T03:54:23.547Z,91.00
2023-04-10T03:56:50.504Z,90.60
2023-04-10T03:59:17.241Z,90.60
2023-04-10T04:01:44.185Z,91.10
2023-04-10T04:04:11.209Z,91.70
2023-04-10T04:06:38.263Z,91.70
2023-04-10T04:09:05.012Z,91.20
2023-04-10T04:11:31.769Z,90.70
2023-04-10T04:13:58.707Z,90.80
2023-04-10T04:16:25.518Z,90.90
2023-04-10T04:18:52.286Z,90.60
2023-04-10T04:21:19.017Z,90.70
2023-04-10T04:23:45.774Z,90.50
2023-04-10T04:26:12.506Z,90.20
2023-04-10T04:28:39.489Z,90.20
2023-04-10T04:31:06.511Z,90.20
2023-04-10T04:33:33.296Z,89.90
2023-04-10T04:36:00.727Z,90.00
2023-04-10T04:38:27.609Z,89.70
2023-04-10T04:40:54.436Z,90.20
2023-04-10T04:43:21.184Z,90.60
2023-04-10T04:45:48.339Z,90.80
2023-04-10T04:48:15.243Z,90.60
2023-04-10T04:50:42.061Z,90.20
2023-04-10T04:53:09.557Z,90.30
2023-04-10T04:55:36.796Z,90.20
2023-04-10T04:58:04.086Z,90.40
2023-04-10T05:00:31.089Z,90.40
2023-04-10T05:02:57.895Z,90.00
2023-04-10T05:05:24.812Z,90.40
2023-04-10T05:07:52.315Z,90.50
2023-04-10T05:10:19.158Z,90.60
2023-04-10T05:12:45.893Z,90.60
2023-04-10T05:15:13.216Z,90.80
2023-04-10T05:17:40.235Z,90.40
2023-04-10T05:20:08.163Z,90.40
2023-04-10T05:22:35.428Z,90.30
2023-04-10T05:25:02.254Z,90.30
2023-04-10T05:27:29.419Z,90.50
2023-04-10T05:29:56.147Z,90.80
2023-04-10T05:32:23.190Z,90.70
2023-04-10T05:34:50.099Z,90.40
2023-04-10T05:37:16.888Z,90.30
2023-04-10T05:39:43.735Z,90.80
2023-04-10T05:42:10.836Z,90.60
2023-04-10T05:44:37.606Z,90.30
2023-04-10T05:47:04.370Z,89.90
2023-04-10T05:49:31.576Z,89.80
2023-04-10T05:51:58.362Z,89.80
2023-04-10T05:54:25.136Z,89.80
2023-04-10T05:56:52.276Z,89.70
2023-04-10T05:59:19.026Z,89.90
2023-04-10T06:01:47.282Z,90.20
2023-04-10T06:04:14.395Z,90.30
2023-04-10T06:06:41.417Z,90.30
2023-04-10T06:09:08.603Z,90.50
2023-04-10T06:11:35.499Z,90.60
2023-04-10T06:14:02.437Z,90.30
2023-04-10T06:16:29.469Z,90.20
2023-04-10T06:18:56.454Z,89.80
2023-04-10T06:21:23.269Z,89.90
2023-04-10T06:23:50.730Z,89.90
2023-04-10T06:26:17.503Z,89.90
2023-04-10T06:28:44.990Z,90.10
2023-04-10T06:31:12.725Z,89.70
2023-04-10T06:33:39.810Z,89.40
2023-04-10T06:36:06.968Z,89.20
2023-04-10T06:38:37.582Z,89.00
2023-04-10T06:41:06.230Z,88.80
2023-04-10T06:43:38.809Z,89.20
2023-04-10T06:46:06.098Z,88.90
2023-04-10T06:48:33.592Z,88.40
2023-04-10T06:51:10.195Z,89.10
2023-04-10T06:53:37.144Z,89.00
2023-04-10T06:56:04.208Z,88.40
2023-04-10T06:58:31.689Z,88.10
2023-04-10T07:00:58.982Z,87.60
2023-04-10T07:03:26.317Z,88.00
2023-04-10T07:05:53.127Z,87.70
2023-04-10T07:08:19.864Z,87.80
2023-04-10T07:10:46.676Z,88.20
2023-04-10T07:13:13.401Z,87.50
2023-04-10T07:15:40.236Z,87.90
2023-04-10T07:18:07.571Z,87.70
2023-04-10T07:20:34.365Z,87.10
2023-04-10T07:23:01.322Z,86.40
2023-04-10T07:25:28.230Z,86.60
2023-04-10T07:27:55.211Z,86.20
2023-04-10T07:30:21.993Z,86.40
2023-04-10T07:32:49.032Z,86.20
2023-04-10T07:35:15.918Z,85.90
2023-04-10T07:37:44.118Z,85.80
2023-04-10T07:40:11.431Z,85.60
2023-04-10T07:42:39.221Z,85.20
2023-04-10T07:45:06.567Z,84.10
2023-04-10T07:47:33.455Z,84.00
2023-04-10T07:50:00.317Z,83.80
2023-04-10T07:52:27.084Z,83.70
2023-04-10T07:54:53.906Z,83.20
2023-04-10T07:57:20.734Z,83.00
2023-04-10T07:59:48.227Z,81.70
2023-04-10T08:02:15.611Z,80.40
2023-04-10T08:04:42.828Z,82.10
2023-04-10T08:07:09.756Z,79.70
2023-04-10T08:09:36.571Z,80.00
2023-04-10T08:12:03.437Z,80.40
2023-04-10T08:14:30.285Z,78.10
2023-04-10T08:16:57.749Z,77.50
2023-04-10T08:19:24.556Z,74.00
2023-04-10T08:21:51.723Z,74.70
2023-04-10T08:24:20.124Z,75.30
2023-04-10T08:26:46.898Z,75.00
2023-04-10T08:29:13.803Z,77.80
2023-04-10T08:31:40.608Z,76.60
2023-04-10T08:34:07.724Z,77.50
2023-04-10T08:36:34.725Z,74.80
2023-04-10T08:39:01.494Z,73.80
2023-04-10T08:41:28.443Z,72.90
2023-04-10T08:43:56.655Z,71.70
2023-04-10T08:46:26.193Z,71.30
2023-04-10T08:49:03.522Z,74.40
2023-04-10T08:51:39.727Z,70.90
2023-04-10T08:54:08.334Z,71.00
2023-04-10T08:56:37.656Z,74.10
2023-04-10T08:59:04.705Z,71.00
2023-04-10T09:01:31.697Z,71.20
2023-04-10T09:03:59.473Z,69.80
2023-04-10T09:06:27.252Z,69.70
2023-04-10T09:08:54.098Z,71.40
2023-04-10T09:11:21.381Z,70.40
2023-04-10T09:13:48.144Z,69.60
2023-04-10T09:16:15.153Z,71.00
2023-04-10T09:18:49.383Z,68.40
2023-04-10T09:21:19.448Z,68.30
2023-04-10T09:23:48.324Z,70.80
2023-04-10T09:26:25.300Z,67.80
2023-04-10T09:29:03.330Z,69.40
2023-04-10T09:31:35.046Z,69.70
2023-04-10T09:34:22.708Z,68.90
2023-04-10T09:36:57.861Z,71.20
2023-04-10T09:39:36.136Z,67.50
2023-04-10T09:42:03.236Z,69.10
2023-04-10T09:44:37.448Z,67.00
2023-04-10T09:47:13.643Z,67.40
2023-04-10T09:49:48.624Z,67.40
2023-04-10T09:52:27.130Z,66.30
2023-04-10T09:54:56.284Z,65.50
2023-04-10T09:57:24.981Z,65.00
2023-04-10T09:59:57.265Z,64.70
2023-04-10T10:02:26.157Z,66.10
2023-04-10T10:04:53.542Z,61.20
2023-04-10T10:07:22.216Z,62.80
2023-04-10T10:09:51.607Z,59.00
2023-04-10T10:12:34.061Z,64.10
2023-04-10T10:15:10.090Z,62.30
2023-04-10T10:17:51.050Z,59.50
2023-04-10T10:20:22.050Z,62.00
2023-04-10T10:22:50.270Z,59.80
2023-04-10T10:25:19.887Z,60.40
2023-04-10T10:27:52.382Z,62.50
2023-04-10T10:30:29.682Z,60.00
2023-04-10T10:33:00.437Z,58.20
2023-04-10T10:35:29.570Z,55.40
2023-04-10T10:37:59.831Z,55.60
2023-04-10T10:40:54.683Z,56.60
2023-04-10T10:43:36.778Z,56.60
2023-04-10T10:46:38.481Z,57.20
2023-04-10T10:49:05.286Z,56.50
2023-04-10T10:51:50.073Z,56.20
2023-04-10T10:54:33.848Z,57.70
2023-04-10T10:57:02.787Z,54.80
2023-04-10T10:59:48.001Z,56.40
2023-04-10T11:02:19.389Z,57.80
2023-04-10T11:04:50.473Z,53.30
2023-04-10T11:07:18.096Z,56.00
2023-04-10T11:09:49.647Z,56.30
2023-04-10T11:12:22.072Z,53.80
2023-04-10T11:14:58.548Z,55.60
2023-04-10T11:17:49.099Z,54.70
2023-04-10T11:20:16.707Z,53.20
2023-04-10T11:23:11.285Z,53.70
2023-04-10T11:25:52.882Z,51.90
2023-04-10T11:28:39.519Z,50.80
2023-04-10T11:31:23.341Z,53.70
2023-04-10T11:33:57.630Z,52.80
2023-04-10T11:36:24.928Z,52.60
2023-04-10T11:39:13.239Z,49.40
2023-04-10T11:41:51.822Z,49.30
2023-04-10T11:44:31.315Z,52.40
2023-04-10T11:46:58.367Z,51.60
2023-04-10T11:49:33.041Z,52.90
2023-04-10T11:52:00.496Z,50.00
2023-04-10T11:54:30.059Z,52.00
2023-04-10T11:57:05.525Z,52.00
2023-04-10T11:59:33.810Z,51.60
2023-04-10T12:02:14.559Z,50.00
2023-04-10T12:04:43.174Z,50.90
2023-04-10T12:07:11.008Z,49.80
2023-04-10T12:09:37.921Z,48.00
2023-04-10T12:12:06.747Z,45.00
2023-04-10T12:14:39.649Z,45.10
2023-04-10T12:17:11.559Z,49.20
2023-04-10T12:19:39.058Z,47.40
2023-04-10T12:22:06.651Z,45.90
2023-04-10T12:24:53.568Z,50.50
2023-04-10T12:27:23.474Z,48.50
2023-04-10T12:29:52.220Z,50.40
2023-04-10T12:32:19.496Z,50.00
2023-04-10T12:34:53.836Z,45.80
2023-04-10T12:37:44.067Z,46.90
2023-04-10T12:40:11.656Z,46.60
2023-04-10T12:42:42.543Z,44.10
2023-04-10T12:45:12.941Z,40.90
2023-04-10T12:47:48.431Z,40.90
2023-04-10T12:50:16.946Z,41.40
2023-04-10T12:52:45.848Z,42.40
2023-04-10T12:55:13.037Z,43.70
2023-04-10T12:57:41.524Z,44.30
2023-04-10T13:00:11.017Z,46.40
2023-04-10T13:02:39.361Z,43.40
2023-04-10T13:05:07.062Z,44.80
2023-04-10T13:07:34.134Z,45.40
2023-04-10T13:10:00.918Z,44.80
2023-04-10T13:12:30.138Z,45.40
2023-04-10T13:14:57.166Z,39.40
2023-04-10T13:17:25.074Z,39.20
2023-04-10T13:19:52.585Z,37.20
2023-04-10T13:22:20.175Z,36.70
2023-04-10T13:24:47.417Z,33.60
2023-04-10T13:27:14.584Z,32.60
2023-04-10T13:29:43.081Z,36.00
2023-04-10T13:34:37.933Z,34.70
2023-04-10T13:37:05.299Z,35.90
2023-04-10T13:39:32.270Z,32.90
2023-04-10T13:41:59.756Z,31.60
2023-04-10T13:44:26.692Z,32.60
2023-04-10T13:46:53.918Z,37.50
2023-04-10T13:49:22.140Z,30.70
2023-04-10T13:51:49.531Z,30.10
2023-04-10T13:54:17.389Z,31.10
2023-04-10T13:56:46.213Z,32.20
2023-04-10T13:59:13.085Z,29.70
2023-04-10T14:01:40.144Z,29.70
2023-04-10T14:04:07.370Z,29.80
2023-04-10T14:06:34.587Z,30.40
2023-04-10T14:09:01.443Z,33.70
2023-04-10T14:11:28.205Z,30.60
2023-04-10T14:13:55.049Z,28.90
2023-04-10T14:16:21.818Z,31.70
2023-04-10T14:18:48.560Z,28.60
2023-04-10T14:21:15.750Z,30.30
2023-04-10T14:23:42.920Z,28.50
2023-04-10T14:26:09.743Z,28.90
2023-04-10T14:28:36.550Z,29.00
2023-04-10T14:31:05.098Z,28.50
2023-04-10T14:33:32.047Z,30.40
2023-04-10T14:35:58.811Z,33.70
2023-04-10T14:38:25.644Z,32.00
2023-04-10T14:40:53.775Z,35.40
2023-04-10T14:43:20.805Z,34.10
2023-04-10T14:45:50.801Z,33.90
2023-04-10T14:48:19.766Z,32.50
2023-04-10T14:50:47.396Z,29.20
2023-04-10T14:53:14.118Z,29.00
2023-04-10T14:55:40.959Z,30.10
2023-04-10T14:58:09.009Z,31.90
2023-04-10T15:00:35.767Z,28.80
2023-04-10T15:03:02.611Z,33.20
2023-04-10T15:05:29.821Z,29.50
2023-04-10T15:07:56.571Z,32.90
2023-04-10T15:10:23.460Z,31.50
2023-04-10T15:12:50.647Z,33.10
2023-04-10T15:15:18.228Z,32.90
2023-04-10T15:17:45.547Z,35.30
2023-04-10T15:20:12.491Z,33.40
2023-04-10T15:22:40.403Z,31.50
2023-04-10T15:25:09.609Z,31.90
2023-04-10T15:27:36.479Z,36.40
2023-04-10T15:30:04.913Z,31.00
2023-04-10T15:32:31.761Z,29.50
2023-04-10T15:34:58.480Z,34.20
2023-04-10T15:37:25.376Z,35.50
2023-04-10T15:39:52.285Z,31.50
2023-04-10T15:42:19.111Z,33.20
2023-04-10T15:44:49.380Z,31.70
2023-04-10T15:47:16.246Z,30.10
2023-04-10T15:49:43.485Z,29.40
2023-04-10T15:52:10.988Z,31.70
2023-04-10T15:54:39.595Z,32.00
2023-04-10T15:57:06.708Z,31.20
2023-04-10T15:59:34.419Z,29.40
2023-04-10T16:02:01.681Z,30.30
2023-04-10T16:04:31.018Z,32.10
2023-04-10T16:06:58.068Z,34.00
2023-04-10T16:09:26.684Z,35.80
2023-04-10T16:11:55.921Z,37.50
2023-04-10T16:14:22.863Z,37.40
2023-04-10T16:16:50.005Z,36.30
2023-04-10T16:19:16.852Z,38.00
2023-04-10T16:21:43.698Z,38.80
2023-04-10T16:24:10.693Z,38.10
2023-04-10T16:26:37.588Z,37.80
2023-04-10T16:29:04.800Z,38.70
2023-04-10T16:31:31.593Z,38.90
2023-04-10T16:33:58.407Z,39.40
2023-04-10T16:36:25.170Z,42.10
2023-04-10T16:38:51.995Z,44.30
2023-04-10T16:41:20.628Z,44.70
2023-04-10T16:43:47.642Z,42.60
2023-04-10T16:46:14.821Z,42.00
2023-04-10T16:48:42.297Z,42.80
2023-04-10T16:51:17.849Z,43.60
2023-04-10T16:53:44.918Z,44.20
2023-04-10T16:56:11.954Z,44.00
2023-04-10T16:58:40.971Z,44.70
2023-04-10T17:01:25.180Z,46.10
2023-04-10T17:03:52.661Z,47.20
2023-04-10T17:06:19.736Z,47.50
2023-04-10T17:08:47.113Z,47.40
2023-04-10T17:11:14.222Z,47.80
2023-04-10T17:13:42.067Z,47.90
2023-04-10T17:16:09.731Z,48.30
2023-04-10T17:18:36.570Z,47.70
2023-04-10T17:21:03.590Z,48.40
2023-04-10T17:23:30.473Z,47.60
2023-04-10T17:25:57.190Z,48.00
2023-04-10T17:28:23.971Z,48.80
2023-04-10T17:30:50.784Z,49.30
2023-04-10T17:33:17.499Z,48.20
2023-04-10T17:35:44.247Z,49.90
2023-04-10T17:38:11.071Z,49.30
2023-04-10T17:40:40.856Z,51.80
2023-04-10T17:43:07.971Z,50.60
2023-04-10T17:45:38.599Z,53.10
2023-04-10T17:48:07.081Z,54.20
2023-04-10T17:50:34.073Z,54.60
2023-04-10T17:53:00.962Z,56.70
2023-04-10T17:55:27.905Z,58.30
2023-04-10T17:57:56.703Z,58.90
2023-04-10T18:00:23.739Z,56.50
2023-04-10T18:02:50.911Z,56.90
2023-04-10T18:05:17.720Z,58.80
2023-04-10T18:07:44.662Z,60.20
2023-04-10T18:10:11.808Z,60.60
2023-04-10T18:12:38.636Z,60.70
2023-04-10T18:15:06.028Z,61.20
2023-04-10T18:17:33.011Z,60.00
2023-04-10T18:20:00.710Z,63.30
2023-04-10T18:22:31.251Z,63.50
2023-04-10T18:24:58.018Z,63.60
2023-04-10T18:27:24.962Z,64.30
2023-04-10T18:29:53.466Z,64.40
2023-04-10T18:32:20.457Z,64.80
2023-04-10T18:34:47.389Z,66.50
2023-04-10T18:37:15.424Z,63.70
2023-04-10T18:39:42.189Z,66.80
2023-04-10T18:42:10.766Z,66.40
2023-04-10T18:44:37.667Z,67.80
2023-04-10T18:47:05.727Z,69.30
2023-04-10T18:49:32.608Z,69.60
2023-04-10T18:52:00.019Z,68.60
2023-04-10T18:54:27.374Z,67.70
2023-04-10T18:56:54.346Z,67.70
2023-04-10T18:59:21.146Z,67.60
2023-04-10T19:01:48.321Z,69.10
2023-04-10T19:04:15.590Z,69.10
2023-04-10T19:06:44.231Z,67.90
2023-04-10T19:09:10.978Z,67.20
2023-04-10T19:11:38.269Z,67.60
2023-04-10T19:14:06.218Z,67.80
2023-04-10T19:19:01.549Z,70.30
2023-04-10T19:21:28.600Z,70.90
2023-04-10T19:23:55.436Z,70.70
2023-04-10T19:26:22.387Z,72.80
2023-04-10T19:28:49.614Z,73.00
2023-04-10T19:31:16.723Z,71.70
2023-04-10T19:33:43.685Z,72.40
2023-04-10T19:36:10.627Z,72.60
2023-04-10T19:38:37.565Z,71.80
2023-04-10T19:41:13.633Z,71.60
2023-04-10T19:43:40.800Z,71.20
2023-04-10T19:46:15.031Z,70.70
2023-04-10T19:48:41.810Z,71.30
2023-04-10T19:51:08.967Z,71.90
2023-04-10T19:53:35.701Z,73.80
2023-04-10T19:56:02.885Z,75.60
2023-04-10T19:58:39.842Z,77.10
2023-04-10T20:01:08.965Z,78.00
2023-04-10T20:03:38.051Z,78.90
2023-04-10T20:06:10.050Z,77.20
2023-04-10T20:08:37.153Z,76.80
2023-04-10T20:11:07.029Z,76.30
2023-04-10T20:13:34.741Z,76.30
2023-04-10T20:16:01.923Z,76.40
2023-04-10T20:18:29.117Z,77.80
2023-04-10T20:20:55.896Z,77.70
2023-04-10T20:23:22.626Z,76.50
2023-04-10T20:25:49.414Z,76.00
2023-04-10T20:28:17.393Z,76.00
2023-04-10T20:30:44.674Z,76.10
2023-04-10T20:33:11.565Z,76.10
2023-04-10T20:35:38.595Z,76.00
2023-04-10T20:38:05.577Z,76.50
2023-04-10T20:40:32.562Z,77.30
2023-04-10T20:42:59.438Z,77.30
2023-04-10T20:45:26.231Z,77.40
2023-04-10T20:47:53.109Z,77.60
2023-04-10T20:50:20.041Z,78.30
2023-04-10T20:52:46.778Z,78.30
2023-04-10T20:55:13.586Z,78.60
2023-04-10T20:57:40.311Z,78.40
2023-04-10T21:00:08.220Z,79.20
2023-04-10T21:02:35.197Z,79.80
2023-04-10T21:05:02.086Z,79.60
2023-04-10T21:07:28.995Z,79.90
2023-04-10T21:09:56.179Z,79.90
2023-04-10T21:12:23.469Z,80.30
2023-04-10T21:14:50.196Z,80.30
2023-04-10T21:17:18.504Z,80.80
2023-04-10T21:19:45.487Z,81.00
2023-04-10T21:22:12.238Z,81.10
2023-04-10T21:24:39.041Z,81.40
2023-04-10T21:27:06.311Z,80.80
2023-04-10T21:29:33.259Z,80.40
2023-04-10T21:32:00.353Z,80.50
2023-04-10T21:34:27.196Z,80.60
2023-04-10T21:36:55.043Z,80.70
2023-04-10T21:39:21.832Z,80.40
2023-04-10T21:41:48.840Z,80.70
2023-04-10T21:44:15.840Z,81.00
2023-04-10T21:46:42.721Z,81.60
2023-04-10T21:49:10.339Z,82.20
2023-04-10T21:51:37.288Z,82.20
2023-04-10T21:54:04.161Z,82.80
2023-04-10T21:56:31.343Z,83.20
2023-04-10T21:58:58.128Z,82.40
2023-04-10T22:01:24.912Z,82.60
2023-04-10T22:03:53.165Z,81.50
2023-04-10T22:06:20.113Z,81.40
2023-04-10T22:08:47.055Z,81.30
2023-04-10T22:11:13.881Z,81.20
2023-04-10T22:13:40.915Z,81.00
2023-04-10T22:16:07.854Z,80.50
2023-04-10T22:18:34.679Z,80.30
2023-04-10T22:21:01.441Z,80.50
2023-04-10T22:23:28.257Z,81.20
2023-04-10T22:25:55.025Z,82.30
2023-04-10T22:28:22.447Z,82.60
2023-04-10T22:30:49.248Z,82.90
2023-04-10T22:33:16.361Z,82.80
2023-04-10T22:35:43.185Z,83.00
2023-04-10T22:38:10.146Z,83.00
2023-04-10T22:40:36.912Z,82.90
2023-04-10T22:43:03.710Z,82.80
2023-04-10T22:45:30.510Z,82.10
2023-04-10T22:47:57.461Z,81.90
2023-04-10T22:50:24.256Z,83.20
2023-04-10T22:52:51.249Z,82.40
2023-04-10T22:55:18.068Z,81.90
2023-04-10T22:57:49.321Z,82.30
2023-04-10T23:00:16.930Z,82.50
2023-04-10T23:02:44.627Z,82.80
2023-04-10T23:05:11.424Z,82.50
2023-04-10T23:07:38.128Z,82.50
2023-04-10T23:10:05.633Z,82.40
2023-04-10T23:12:32.743Z,82.40
2023-04-10T23:14:59.547Z,82.30
2023-04-10T23:17:26.322Z,81.50
2023-04-10T23:19:53.994Z,81.40
2023-04-10T23:22:20.767Z,81.70
2023-04-10T23:24:52.306Z,81.50
2023-04-10T23:27:19.077Z,81.40
2023-04-10T23:29:45.767Z,81.20
2023-04-10T23:32:12.653Z,78.70
2023-04-10T23:34:39.425Z,77.90
2023-04-10T23:37:06.252Z,77.10
2023-04-10T23:39:33.084Z,76.70
2023-04-10T23:42:00.005Z,76.80
2023-04-10T23:44:27.030Z,76.60
2023-04-10T23:46:53.824Z,76.60
2023-04-10T23:49:20.547Z,76.70
2023-04-10T23:51:47.356Z,79.20
2023-04-10T23:54:14.575Z,79.60
2023-04-10T23:56:41.429Z,79.50
2023-04-10T23:59:08.182Z,80.10
